Time;durP1;ratioP1;P1;durP2;ratioP2;P2;SDS_P1;SDS_P2;PMS_P1;PMS_P2;Temp;Humidity;BMP_temperature;BMP_pressure;BME280_temperature;BME280_humidity;BME280_pressure;Samples;Min_cycle;Max_cycle;Signal;HPM_P1;HPM_P2
2023/03/18 00:00:06;;;;;;;10.25;4.22;;;;;;;10.31;57.09;100795.09;7392933;19;20074;-61
2023/03/18 00:02:32;;;;;;;9.00;3.72;;;;;;;10.32;57.29;100783.50;7393579;19;20002;-61
2023/03/18 00:04:59;;;;;;;7.57;3.40;;;;;;;10.31;57.27;100780.00;7393846;19;19991;-61
2023/03/18 00:07:24;;;;;;;7.82;3.88;;;;;;;10.31;57.48;100780.00;7392799;19;19991;-61
2023/03/18 00:09:57;;;;;;;7.43;3.60;;;;;;;10.32;57.74;100773.69;7394653;19;20058;-62
2023/03/18 00:12:23;;;;;;;9.37;4.50;;;;;;;10.31;57.78;100785.31;7392590;19;20031;-62
2023/03/18 00:14:49;;;;;;;11.75;4.70;;;;;;;10.30;58.23;100777.47;7391572;19;19995;-62
2023/03/18 00:17:15;;;;;;;8.55;3.80;;;;;;;10.30;58.06;100780.97;7392484;19;20010;-61
2023/03/18 00:19:41;;;;;;;9.07;3.65;;;;;;;10.30;58.09;100785.44;7394439;19;20483;-61
2023/03/18 00:22:07;;;;;;;8.18;3.38;;;;;;;10.30;57.96;100790.75;7391363;19;20002;-61
2023/03/18 00:24:32;;;;;;;8.32;3.28;;;;;;;10.29;58.29;100792.56;7391571;19;20083;-61
2023/03/18 00:26:58;;;;;;;7.38;3.10;;;;;;;10.28;58.49;100790.84;7392673;19;20001;-61
2023/03/18 00:29:24;;;;;;;9.15;3.40;;;;;;;10.28;58.80;100801.47;7391571;19;20002;-61
2023/03/18 00:31:50;;;;;;;7.45;3.20;;;;;;;10.27;59.09;100794.50;7393582;19;20078;-61
2023/03/18 00:34:17;;;;;;;9.07;3.53;;;;;;;10.23;59.60;100793.03;7394571;19;20002;-61
2023/03/18 00:36:44;;;;;;;9.35;3.53;;;;;;;10.22;60.35;100798.50;7393037;19;20341;-61
2023/03/18 00:39:12;;;;;;;8.75;3.30;;;;;;;10.16;60.73;100797.16;7393727;19;19994;-61
2023/03/18 00:41:37;;;;;;;10.00;3.83;;;;;;;10.13;61.12;100792.09;7393342;19;20007;-61
2023/03/18 00:44:04;;;;;;;9.82;3.40;;;;;;;10.09;61.69;100798.59;7391896;19;20038;-61
2023/03/18 00:46:32;;;;;;;9.20;3.47;;;;;;;10.11;61.53;100796.69;7390916;19;19994;-61
2023/03/18 00:49:00;;;;;;;8.27;3.60;;;;;;;10.10;61.29;100790.53;7390152;19;20005;-61
2023/03/18 00:51:29;;;;;;;9.18;3.55;;;;;;;10.10;61.53;100792.34;7390792;19;20005;-62
2023/03/18 00:53:56;;;;;;;6.25;3.00;;;;;;;10.11;61.47;100788.72;7390442;19;20035;-62
2023/03/18 00:56:25;;;;;;;11.15;3.60;;;;;;;10.11;61.29;100792.22;7391065;19;20003;-62
2023/03/18 00:58:52;;;;;;;7.78;3.72;;;;;;;10.13;61.42;100794.75;7388857;19;19999;-62
2023/03/18 01:01:19;;;;;;;8.85;3.72;;;;;;;10.13;61.30;100802.69;7390536;19;19998;-62
2023/03/18 01:03:46;;;;;;;7.70;3.25;;;;;;;10.11;61.20;100802.84;7390701;19;19991;-63
2023/03/18 01:06:21;;;;;;;9.20;3.67;;;;;;;10.12;61.44;100801.84;7391464;19;19996;-62
2023/03/18 01:08:47;;;;;;;9.05;3.40;;;;;;;10.11;61.55;100799.34;7392684;19;20005;-62
2023/03/18 01:11:13;;;;;;;10.50;3.53;;;;;;;10.12;61.44;100801.84;7390878;19;20002;-61
2023/03/18 01:13:39;;;;;;;9.10;3.58;;;;;;;10.12;61.74;100806.31;7391184;19;20322;-61
2023/03/18 01:16:06;;;;;;;11.07;4.03;;;;;;;10.12;62.01;100811.63;7391321;19;20014;-62
2023/03/18 01:18:33;;;;;;;9.27;3.45;;;;;;;10.09;62.20;100803.91;7390865;19;20003;-62
2023/03/18 01:20:59;;;;;;;8.98;3.47;;;;;;;10.06;62.70;100809.50;7391821;19;20018;-61
2023/03/18 01:23:25;;;;;;;8.32;3.13;;;;;;;10.05;63.20;100805.97;7390848;19;20003;-62
2023/03/18 01:25:51;;;;;;;7.28;3.20;;;;;;;10.03;63.17;100807.06;7389707;19;20156;-62
2023/03/18 01:28:17;;;;;;;8.20;3.50;;;;;;;9.98;63.45;100804.78;7390723;19;20108;-62
2023/03/18 01:30:42;;;;;;;11.30;3.72;;;;;;;9.92;64.00;100803.44;7390936;19;20556;-61
2023/03/18 01:33:08;;;;;;;10.95;3.70;;;;;;;9.88;64.17;100804.66;7391772;19;20003;-61
2023/03/18 01:35:35;;;;;;;10.38;3.70;;;;;;;9.92;64.04;100815.88;7390158;19;20320;-61
2023/03/18 01:38:04;;;;;;;9.30;3.38;;;;;;;9.92;64.16;100808.75;7388808;19;20264;-62
2023/03/18 01:40:32;;;;;;;8.40;3.50;;;;;;;9.86;64.47;100803.91;7392723;19;20017;-60
2023/03/18 01:43:12;;;;;;;11.07;4.00;;;;;;;9.92;64.64;100815.88;7390533;19;20013;-61
2023/03/18 01:45:38;;;;;;;8.73;3.80;;;;;;;9.87;64.80;100813.59;7390968;19;20055;-60
2023/03/18 01:48:04;;;;;;;10.73;3.80;;;;;;;9.85;65.02;100810.19;7390546;19;20039;-61
2023/03/18 01:50:31;;;;;;;7.47;3.15;;;;;;;9.83;65.77;100813.88;7392237;19;20007;-62
2023/03/18 01:53:05;;;;;;;10.13;3.60;;;;;;;9.84;66.01;100805.00;7391403;19;20006;-61
2023/03/18 01:55:32;;;;;;;10.38;4.00;;;;;;;9.79;65.91;100807.13;7391085;19;20375;-62
2023/03/18 01:58:00;;;;;;;10.95;3.47;;;;;;;9.78;66.26;100811.59;7389281;19;20334;-61
2023/03/18 02:00:32;;;;;;;8.38;3.55;;;;;;;9.77;66.30;100807.25;7391402;19;20007;-61
2023/03/18 02:02:59;;;;;;;9.10;3.72;;;;;;;9.73;66.80;100810.28;7390863;19;20029;-61
2023/03/18 02:05:26;;;;;;;9.10;3.88;;;;;;;9.66;67.20;100809.91;7390834;19;20014;-61
2023/03/18 02:07:52;;;;;;;6.70;3.30;;;;;;;9.68;67.04;100808.00;7389410;19;20036;-61
2023/03/18 02:10:29;;;;;;;8.55;3.33;;;;;;;9.67;67.30;100807.13;7390330;19;19998;-61
2023/03/18 02:13:00;;;;;;;9.30;3.60;;;;;;;9.63;67.29;100799.53;7391177;19;20011;-60
2023/03/18 02:15:27;;;;;;;8.95;3.05;;;;;;;9.60;67.44;100799.75;7389520;19;20015;-61
2023/03/18 02:18:00;;;;;;;7.90;3.38;;;;;;;9.62;67.49;100808.44;7391046;19;20003;-61
2023/03/18 02:20:47;;;;;;;8.65;3.60;;;;;;;9.57;67.91;100786.75;7387734;19;20009;-61
2023/03/18 02:23:28;;;;;;;8.00;3.35;;;;;;;9.57;67.96;100790.25;7395642;19;20042;-60
2023/03/18 02:26:09;;;;;;;8.75;3.90;;;;;;;9.58;68.44;100785.78;7396466;19;20352;-60
2023/03/18 02:28:36;;;;;;;10.80;3.80;;;;;;;9.53;68.08;100787.97;7397347;19;20009;-60
2023/03/18 02:31:08;;;;;;;10.20;4.05;;;;;;;9.51;68.09;100787.22;7396501;19;20003;-61
2023/03/18 02:33:37;;;;;;;11.68;3.85;;;;;;;9.47;68.53;100787.44;7398178;19;20104;-61
2023/03/18 02:36:13;;;;;;;9.23;3.85;;;;;;;9.45;68.59;100780.59;7396783;19;20006;-61
2023/03/18 02:38:43;;;;;;;10.95;4.50;;;;;;;9.50;68.92;100785.53;7393428;19;20032;-61
2023/03/18 02:41:22;;;;;;;10.07;3.95;;;;;;;9.48;68.85;100788.28;7397153;19;19995;-61
2023/03/18 02:43:49;;;;;;;11.50;4.25;;;;;;;9.46;69.01;100793.72;7395338;19;20027;-61
2023/03/18 02:46:26;;;;;;;9.65;4.22;;;;;;;9.51;68.91;100803.13;7396048;19;20383;-60
2023/03/18 02:48:52;;;;;;;9.73;4.40;;;;;;;9.49;68.97;100805.06;7397174;19;20506;-60
2023/03/18 02:51:19;;;;;;;11.00;4.78;;;;;;;9.47;69.17;100806.00;7396768;19;20013;-61
2023/03/18 02:53:46;;;;;;;9.02;4.10;;;;;;;9.44;69.44;100806.25;7395581;19;19994;-61
2023/03/18 02:56:12;;;;;;;13.23;4.40;;;;;;;9.46;69.18;100806.97;7395278;19;20034;-62
2023/03/18 02:58:37;;;;;;;12.48;4.55;;;;;;;9.44;69.50;100816.00;7394057;19;20474;-60
2023/03/18 03:01:06;;;;;;;9.60;4.40;;;;;;;9.44;69.73;100816.84;7396666;19;19999;-62
2023/03/18 03:03:33;;;;;;;12.80;4.38;;;;;;;9.45;69.93;100809.75;7395477;19;20023;-60
2023/03/18 03:06:00;;;;;;;13.00;4.93;;;;;;;9.43;69.68;100812.50;7394777;19;20030;-61
2023/03/18 03:08:26;;;;;;;8.50;4.70;;;;;;;9.43;69.85;100814.31;7393704;19;20020;-60
2023/03/18 03:10:52;;;;;;;12.50;4.60;;;;;;;9.44;69.82;100827.44;7396593;19;19998;-61
2023/03/18 03:13:20;;;;;;;11.02;4.80;;;;;;;9.48;69.56;100833.38;7394908;19;19995;-63
2023/03/18 03:15:45;;;;;;;9.93;4.60;;;;;;;9.52;69.69;100823.38;7395779;19;20018;-61
2023/03/18 03:18:11;;;;;;;9.65;4.80;;;;;;;9.46;70.11;100819.41;7391902;19;20020;-61
2023/03/18 03:20:37;;;;;;;13.18;4.97;;;;;;;9.44;69.98;100822.16;7396637;19;20006;-61
2023/03/18 03:23:09;;;;;;;11.48;5.15;;;;;;;9.47;70.24;100821.06;7394689;19;20024;-61
2023/03/18 03:25:35;;;;;;;12.88;5.10;;;;;;;9.51;70.11;100814.56;7396086;19;20016;-61
2023/03/18 03:28:02;;;;;;;12.82;5.07;;;;;;;9.56;69.90;100814.22;7393795;19;20025;-61
2023/03/18 03:30:28;;;;;;;10.38;5.20;;;;;;;9.54;70.05;100821.47;7395634;19;20006;-61
2023/03/18 03:32:54;;;;;;;11.23;5.50;;;;;;;9.50;70.17;100814.72;7395153;19;20031;-61
2023/03/18 03:35:20;;;;;;;13.70;5.38;;;;;;;9.51;70.36;100821.69;7393226;19;20503;-61
2023/03/18 03:37:46;;;;;;;13.82;5.80;;;;;;;9.52;70.22;100826.03;7394771;19;20005;-61
2023/03/18 03:40:15;;;;;;;12.27;5.57;;;;;;;9.53;70.16;100825.09;7394852;19;20023;-61
2023/03/18 03:42:42;;;;;;;10.98;5.20;;;;;;;9.55;70.25;100823.97;7395302;19;20017;-61
2023/03/18 03:45:08;;;;;;;15.48;5.88;;;;;;;9.53;70.31;100835.69;7396252;19;20014;-61
2023/03/18 03:47:34;;;;;;;11.52;5.53;;;;;;;9.54;70.17;100830.25;7394596;19;20003;-61
2023/03/18 03:49:59;;;;;;;11.80;5.32;;;;;;;9.52;70.18;100834.81;7393020;19;20324;-61
2023/03/18 03:52:25;;;;;;;10.65;5.57;;;;;;;9.54;70.34;100837.38;7394457;19;20073;-61
2023/03/18 03:54:51;;;;;;;12.32;5.32;;;;;;;9.54;70.36;100843.53;7394244;19;20034;-61
2023/03/18 03:57:17;;;;;;;15.02;6.00;;;;;;;9.56;70.27;100846.03;7392589;19;20082;-62
2023/03/18 03:59:42;;;;;;;12.95;5.65;;;;;;;9.59;70.26;100845.81;7395256;19;20461;-62
2023/03/18 04:02:08;;;;;;;12.18;6.22;;;;;;;9.59;70.00;100843.16;7394105;19;20050;-61
2023/03/18 04:04:34;;;;;;;14.00;5.97;;;;;;;9.57;70.22;100843.28;7392878;19;20469;-61
2023/03/18 04:07:00;;;;;;;11.32;5.20;;;;;;;9.58;70.11;100847.63;7393847;19;19995;-62
2023/03/18 04:09:25;;;;;;;12.07;5.85;;;;;;;9.62;69.87;100840.28;7394279;19;20006;-62
2023/03/18 04:11:51;;;;;;;13.98;5.97;;;;;;;9.60;70.08;100843.06;7394212;19;19997;-61
2023/03/18 04:14:17;;;;;;;13.77;6.15;;;;;;;9.57;70.24;100848.59;7393378;19;20002;-61
2023/03/18 04:16:43;;;;;;;13.80;6.13;;;;;;;9.59;70.42;100854.63;7392747;19;20018;-61
2023/03/18 04:19:09;;;;;;;13.45;6.60;;;;;;;9.61;70.16;100849.22;7394246;19;20002;-61
2023/03/18 04:21:35;;;;;;;13.45;5.88;;;;;;;9.59;70.05;100843.16;7394745;19;20036;-61
2023/03/18 04:24:05;;;;;;;11.68;5.75;;;;;;;9.61;70.18;100849.22;7393064;19;19999;-60
2023/03/18 04:26:31;;;;;;;13.30;6.10;;;;;;;9.64;69.85;100855.13;7392176;19;20026;-61
2023/03/18 04:28:57;;;;;;;11.98;5.60;;;;;;;9.61;70.26;100850.06;7392133;19;20039;-61
2023/03/18 04:31:23;;;;;;;13.20;6.30;;;;;;;9.65;69.98;100850.66;7392237;19;20006;-62
2023/03/18 04:33:48;;;;;;;14.02;6.38;;;;;;;9.66;70.16;100852.34;7393733;19;20470;-62
2023/03/18 04:36:14;;;;;;;13.48;6.40;;;;;;;9.61;70.20;100849.22;7392625;19;19998;-61
2023/03/18 04:38:40;;;;;;;11.55;5.93;;;;;;;9.57;70.10;100856.56;7391540;19;19995;-61
2023/03/18 04:41:06;;;;;;;13.85;5.90;;;;;;;9.55;70.28;100862.94;7393510;19;20312;-61
2023/03/18 04:43:31;;;;;;;15.98;6.00;;;;;;;9.53;70.40;100860.41;7392709;19;20011;-61
2023/03/18 04:45:57;;;;;;;14.52;6.47;;;;;;;9.49;70.34;100874.03;7391823;19;19998;-61
2023/03/18 04:48:23;;;;;;;13.13;6.43;;;;;;;9.42;70.82;100876.28;7390991;19;20328;-60
2023/03/18 04:50:48;;;;;;;14.43;7.03;;;;;;;9.41;70.77;100871.94;7393655;19;20001;-61
2023/03/18 04:53:14;;;;;;;13.05;6.57;;;;;;;9.40;70.92;100872.88;7392670;19;20001;-61
2023/03/18 04:55:40;;;;;;;13.60;6.15;;;;;;;9.45;70.83;100876.91;7390373;19;19999;-61
2023/03/18 04:58:05;;;;;;;13.68;6.53;;;;;;;9.53;70.48;100884.28;7390831;19;20022;-61
2023/03/18 05:00:31;;;;;;;14.75;6.97;;;;;;;9.53;70.32;100868.34;7391688;19;20009;-62
2023/03/18 05:02:56;;;;;;;12.50;6.55;;;;;;;9.55;70.45;100882.34;7392941;19;19999;-61
2023/03/18 05:05:22;;;;;;;13.95;6.93;;;;;;;9.53;70.30;100873.66;7391440;19;20002;-62
2023/03/18 05:07:48;;;;;;;12.68;6.07;;;;;;;9.51;70.63;100870.28;7392000;19;20006;-60
2023/03/18 05:10:14;;;;;;;12.63;6.55;;;;;;;9.52;70.28;100881.72;7391803;19;20006;-60
2023/03/18 05:12:39;;;;;;;13.45;6.93;;;;;;;9.52;70.42;100887.03;7391678;19;20781;-60
2023/03/18 05:15:05;;;;;;;16.85;7.35;;;;;;;9.45;70.63;100881.34;7387823;19;20086;-62
2023/03/18 05:17:31;;;;;;;13.27;6.25;;;;;;;9.37;71.04;100878.41;7391216;19;20017;-60
2023/03/18 05:19:57;;;;;;;14.30;6.82;;;;;;;9.34;71.26;100881.31;7392294;19;19995;-60
2023/03/18 05:22:22;;;;;;;16.80;7.90;;;;;;;9.32;71.08;100885.88;7393574;19;20018;-62
2023/03/18 05:24:48;;;;;;;15.82;7.28;;;;;;;9.30;71.36;100887.81;7390846;19;19998;-62
2023/03/18 05:27:17;;;;;;;14.63;6.97;;;;;;;9.28;71.30;100892.38;7391696;19;20408;-60
2023/03/18 05:29:42;;;;;;;16.23;7.45;;;;;;;9.25;71.55;100893.44;7393348;19;20346;-60
2023/03/18 05:32:09;;;;;;;14.18;6.78;;;;;;;9.21;71.65;100882.22;7393480;19;19998;-61
2023/03/18 05:34:36;;;;;;;20.17;7.28;;;;;;;9.22;71.56;100883.91;7392796;19;20262;-61
2023/03/18 05:37:07;;;;;;;13.30;7.43;;;;;;;9.19;71.76;100884.16;7393759;19;20007;-60
2023/03/18 05:39:33;;;;;;;16.88;7.60;;;;;;;9.19;71.58;100894.75;7392890;19;20550;-60
2023/03/18 05:41:59;;;;;;;15.25;8.40;;;;;;;9.20;71.67;100893.78;7393824;19;19998;-59
2023/03/18 05:44:27;;;;;;;17.23;7.40;;;;;;;9.23;71.53;100890.06;7390546;19;19999;-60
2023/03/18 05:46:52;;;;;;;16.80;7.50;;;;;;;9.26;71.47;100891.66;7393372;19;20009;-60
2023/03/18 05:49:18;;;;;;;15.07;7.30;;;;;;;9.26;71.49;100881.88;7393557;19;20326;-59
2023/03/18 05:51:45;;;;;;;14.95;7.40;;;;;;;9.27;71.53;100888.03;7392961;19;19991;-59
2023/03/18 05:54:11;;;;;;;13.07;7.22;;;;;;;9.29;71.41;100891.41;7392682;19;20003;-63
2023/03/18 05:56:38;;;;;;;13.00;7.15;;;;;;;9.30;71.24;100898.41;7390005;19;20342;-60
2023/03/18 05:59:04;;;;;;;16.85;8.30;;;;;;;9.34;70.93;100900.72;7392616;19;20013;-60
2023/03/18 06:01:31;;;;;;;14.07;7.43;;;;;;;9.35;71.23;100905.06;7392338;19;20026;-60
2023/03/18 06:03:58;;;;;;;16.60;7.97;;;;;;;9.37;71.17;100907.56;7391070;19;19995;-60
2023/03/18 06:06:24;;;;;;;17.60;8.82;;;;;;;9.40;71.23;100910.84;7391501;19;20342;-60
2023/03/18 06:08:51;;;;;;;14.35;7.50;;;;;;;9.45;71.06;100916.69;7392420;19;19995;-59
2023/03/18 06:11:17;;;;;;;16.98;8.68;;;;;;;9.45;70.84;100919.31;7392863;19;20006;-59
2023/03/18 06:13:44;;;;;;;15.55;8.27;;;;;;;9.50;71.36;100924.28;7391982;19;20006;-59
2023/03/18 06:16:10;;;;;;;17.33;7.85;;;;;;;9.51;70.74;100917.16;7391521;19;20006;-60
2023/03/18 06:18:36;;;;;;;15.73;7.95;;;;;;;9.51;70.96;100925.97;7390084;19;20019;-59
2023/03/18 06:21:02;;;;;;;17.00;7.97;;;;;;;9.55;70.86;100934.53;7392176;19;20422;-59
2023/03/18 06:23:28;;;;;;;16.45;7.47;;;;;;;9.54;70.97;100936.34;7391262;19;20013;-59
2023/03/18 06:25:53;;;;;;;16.67;7.75;;;;;;;9.51;70.96;100933.91;7391976;19;19992;-60
2023/03/18 06:28:19;;;;;;;15.50;8.00;;;;;;;9.48;71.18;100939.44;7390476;19;20418;-60
2023/03/18 06:30:44;;;;;;;16.83;8.35;;;;;;;9.50;71.22;100936.69;7391123;19;20002;-60
2023/03/18 06:33:10;;;;;;;14.27;8.18;;;;;;;9.49;71.03;100935.00;7392186;19;20022;-60
2023/03/18 06:35:35;;;;;;;16.23;8.65;;;;;;;9.52;71.13;100940.06;7387225;19;20473;-60
2023/03/18 06:38:01;;;;;;;18.58;8.52;;;;;;;9.54;71.01;100946.13;7388413;19;20002;-61
2023/03/18 06:40:27;;;;;;;17.08;8.65;;;;;;;9.52;71.31;100951.50;7390152;19;20006;-59
2023/03/18 06:42:53;;;;;;;15.57;8.38;;;;;;;9.54;71.19;100952.25;7390281;19;20007;-60
2023/03/18 06:45:19;;;;;;;17.42;8.80;;;;;;;9.59;71.04;100962.53;7388817;19;20017;-60
2023/03/18 06:47:45;;;;;;;15.48;8.63;;;;;;;9.64;70.84;100960.38;7387368;19;20491;-59
2023/03/18 06:50:12;;;;;;;15.05;8.25;;;;;;;9.68;70.91;100970.66;7389565;19;20018;-59
2023/03/18 06:52:38;;;;;;;18.67;8.45;;;;;;;9.68;71.17;100967.16;7390475;19;20007;-59
2023/03/18 06:55:05;;;;;;;16.42;8.82;;;;;;;9.68;71.56;100968.00;7388738;19;20343;-61
2023/03/18 06:57:31;;;;;;;17.42;9.70;;;;;;;9.69;71.99;100974.16;7389614;19;19999;-60
2023/03/18 06:59:57;;;;;;;15.88;9.38;;;;;;;9.65;72.49;100967.38;7389511;19;19999;-62
2023/03/18 07:02:23;;;;;;;17.48;9.23;;;;;;;9.62;73.30;100972.91;7389433;19;20025;-60
2023/03/18 07:04:49;;;;;;;17.42;9.38;;;;;;;9.63;73.50;100972.78;7386630;19;20027;-62
2023/03/18 07:07:15;;;;;;;16.80;9.13;;;;;;;9.61;73.60;100973.88;7389663;19;19999;-61
2023/03/18 07:09:43;;;;;;;19.10;10.07;;;;;;;9.62;73.96;100972.91;7396446;19;20006;-61
2023/03/18 07:12:12;;;;;;;19.33;9.48;;;;;;;9.69;74.03;100979.44;7396225;19;20006;-61
2023/03/18 07:14:39;;;;;;;17.45;9.50;;;;;;;9.74;73.79;100979.94;7394872;19;20009;-60
2023/03/18 07:17:05;;;;;;;18.23;10.20;;;;;;;9.77;73.93;100986.84;7395139;19;20031;-61
2023/03/18 07:19:32;;;;;;;18.02;10.80;;;;;;;9.75;74.60;100994.06;7396844;19;20339;-62
2023/03/18 07:21:58;;;;;;;17.92;10.07;;;;;;;9.74;74.59;100985.25;7397099;19;19990;-59
2023/03/18 07:24:25;;;;;;;17.17;10.38;;;;;;;9.80;74.77;100997.22;7393695;19;20006;-59
2023/03/18 07:26:51;;;;;;;18.85;10.63;;;;;;;9.83;74.66;101004.94;7396226;19;20019;-60
2023/03/18 07:29:17;;;;;;;20.88;10.93;;;;;;;9.80;74.94;101013.16;7394692;19;19994;-59
2023/03/18 07:31:43;;;;;;;22.52;10.90;;;;;;;9.73;75.20;101011.91;7395770;19;20002;-59
2023/03/18 07:34:09;;;;;;;17.42;10.30;;;;;;;9.70;75.38;101018.28;7396762;19;20429;-59
2023/03/18 07:36:35;;;;;;;19.25;10.63;;;;;;;9.75;75.19;101015.28;7394793;19;20002;-59
2023/03/18 07:39:03;;;;;;;18.30;10.48;;;;;;;9.74;75.26;101019.75;7395990;19;20022;-59
2023/03/18 07:41:29;;;;;;;17.70;10.15;;;;;;;9.76;74.96;101020.50;7395884;19;20002;-59
2023/03/18 07:43:55;;;;;;;17.13;9.95;;;;;;;9.74;75.15;101040.13;7394532;19;20367;-59
2023/03/18 07:46:21;;;;;;;18.55;10.63;;;;;;;9.75;75.09;101041.81;7394280;19;19995;-59
2023/03/18 07:48:53;;;;;;;21.33;11.15;;;;;;;9.79;75.09;101046.81;7395934;19;20453;-59
2023/03/18 07:51:18;;;;;;;18.15;11.07;;;;;;;9.83;74.84;101042.09;7394873;19;20015;-58
2023/03/18 07:53:44;;;;;;;19.63;11.05;;;;;;;9.88;74.53;101047.94;7395514;19;20070;-58
2023/03/18 07:56:10;;;;;;;18.38;10.60;;;;;;;9.85;74.80;101042.84;7393954;19;19998;-59
2023/03/18 07:58:37;;;;;;;20.38;11.02;;;;;;;9.89;74.81;101049.63;7393074;19;19994;-58
2023/03/18 08:01:03;;;;;;;18.35;10.93;;;;;;;9.89;74.69;101044.31;7393344;19;20114;-58
2023/03/18 08:03:28;;;;;;;18.27;10.73;;;;;;;9.89;74.72;101037.19;7392176;19;20003;-59
2023/03/18 08:05:54;;;;;;;17.73;10.85;;;;;;;9.97;74.60;101051.72;7392239;19;19994;-59
2023/03/18 08:08:21;;;;;;;20.85;11.30;;;;;;;10.03;74.32;101048.63;7393295;19;20002;-58
2023/03/18 08:10:47;;;;;;;16.38;10.13;;;;;;;10.12;73.78;101048.75;7395798;19;20058;-59
2023/03/18 08:13:13;;;;;;;19.23;11.63;;;;;;;10.06;74.25;101057.19;7395185;19;19999;-59
2023/03/18 08:15:39;;;;;;;19.17;10.93;;;;;;;10.12;73.91;101053.22;7391632;19;20009;-59
2023/03/18 08:18:04;;;;;;;17.60;10.85;;;;;;;10.22;73.61;101056.03;7392196;19;20018;-59
2023/03/18 08:20:30;;;;;;;19.00;11.05;;;;;;;10.26;73.66;101076.09;7391477;19;20005;-60
2023/03/18 08:22:56;;;;;;;17.38;10.48;;;;;;;10.23;73.67;101069.19;7394014;19;20062;-61
2023/03/18 08:25:22;;;;;;;21.02;11.38;;;;;;;10.24;73.64;101070.88;7393313;19;20024;-59
2023/03/18 08:27:48;;;;;;;20.10;11.30;;;;;;;10.31;73.26;101072.09;7392293;19;20010;-60
2023/03/18 08:30:15;;;;;;;18.30;11.02;;;;;;;10.29;73.29;101079.34;7394608;19;19990;-61
2023/03/18 08:32:42;;;;;;;19.25;11.07;;;;;;;10.29;73.14;101081.16;7393355;19;20015;-63
2023/03/18 08:35:08;;;;;;;17.02;10.65;;;;;;;10.31;73.01;101077.41;7393298;19;20006;-62
2023/03/18 08:37:35;;;;;;;19.17;10.82;;;;;;;10.36;72.93;101082.38;7390805;19;20025;-62
2023/03/18 08:40:01;;;;;;;19.17;11.10;;;;;;;10.44;72.72;101087.97;7393945;19;20081;-62
2023/03/18 08:42:27;;;;;;;19.13;10.90;;;;;;;10.45;72.74;101092.31;7393994;19;20002;-62
2023/03/18 08:44:52;;;;;;;20.23;11.55;;;;;;;10.46;72.67;101106.44;7391016;19;20006;-62
2023/03/18 08:47:18;;;;;;;19.92;11.05;;;;;;;10.48;72.71;101096.53;7392211;19;20016;-62
2023/03/18 08:49:44;;;;;;;19.48;11.07;;;;;;;10.44;72.60;101101.25;7393599;19;20010;-62
2023/03/18 08:52:10;;;;;;;17.75;10.80;;;;;;;10.42;72.69;101090.72;7393190;19;20009;-62
2023/03/18 08:54:36;;;;;;;19.98;11.55;;;;;;;10.37;72.89;101097.38;7390288;19;20502;-62
2023/03/18 08:57:01;;;;;;;20.60;11.23;;;;;;;10.31;73.05;101100.47;7392790;19;20006;-60
2023/03/18 08:59:27;;;;;;;18.80;11.77;;;;;;;10.36;72.87;101103.63;7392889;19;20339;-60
2023/03/18 09:01:52;;;;;;;18.70;11.43;;;;;;;10.38;72.94;101099.88;7392687;19;20330;-61
2023/03/18 09:04:19;;;;;;;17.15;10.77;;;;;;;10.51;72.20;101107.75;7391613;19;20360;-60
2023/03/18 09:06:51;;;;;;;19.27;10.40;;;;;;;10.69;71.62;101108.19;7392784;19;20005;-61
2023/03/18 09:09:17;;;;;;;20.25;10.63;;;;;;;10.74;71.46;101107.81;7392940;19;20019;-61
2023/03/18 09:11:44;;;;;;;21.15;10.95;;;;;;;10.72;71.75;101112.41;7392290;19;20082;-61
2023/03/18 09:14:10;;;;;;;19.33;11.75;;;;;;;10.67;71.78;101118.09;7390993;19;20003;-60
2023/03/18 09:16:36;;;;;;;22.58;11.48;;;;;;;10.61;72.00;101118.56;7391519;19;20052;-60
2023/03/18 09:19:02;;;;;;;21.98;11.55;;;;;;;10.55;72.31;101114.53;7391562;19;19998;-60
2023/03/18 09:21:28;;;;;;;24.20;11.65;;;;;;;10.51;72.62;101115.72;7392081;19;20006;-61
2023/03/18 09:23:53;;;;;;;22.02;11.75;;;;;;;10.52;72.90;101111.28;7391121;19;20007;-60
2023/03/18 09:26:19;;;;;;;20.13;11.48;;;;;;;10.48;72.67;101116.00;7391035;19;20003;-60
2023/03/18 09:28:45;;;;;;;19.15;12.30;;;;;;;10.43;72.64;101105.69;7393136;19;20006;-61
2023/03/18 09:31:12;;;;;;;20.52;13.15;;;;;;;10.47;72.80;101108.97;7390878;19;20003;-60
2023/03/18 09:33:40;;;;;;;22.77;12.55;;;;;;;10.53;72.87;101110.31;7391944;19;20009;-62
2023/03/18 09:36:06;;;;;;;20.35;13.15;;;;;;;10.61;72.32;101116.72;7391837;19;20006;-63
2023/03/18 09:38:32;;;;;;;22.80;12.27;;;;;;;10.69;72.25;101118.81;7390805;19;20001;-62
2023/03/18 09:41:23;;;;;;;23.45;13.48;;;;;;;10.74;72.34;101127.25;7391965;19;20355;-63
2023/03/18 09:44:04;;;;;;;21.85;13.77;;;;;;;10.77;72.45;101129.69;7391116;19;20037;-63
2023/03/18 09:46:52;;;;;;;22.42;14.10;;;;;;;10.85;72.23;101132.59;7389631;19;20058;-62
2023/03/18 09:49:32;;;;;;;21.10;13.43;;;;;;;10.97;71.54;101125.47;7389346;19;20041;-62
2023/03/18 09:52:00;;;;;;;22.73;13.95;;;;;;;11.17;70.85;101132.75;7392219;19;19995;-63
2023/03/18 09:54:57;;;;;;;19.60;13.23;;;;;;;11.26;70.22;101122.41;7391586;19;20394;-62
2023/03/18 09:57:28;;;;;;;22.85;13.60;;;;;;;11.30;70.57;101134.47;7389093;19;20019;-60
2023/03/18 10:00:04;;;;;;;20.90;13.35;;;;;;;11.39;69.77;101131.97;7391810;19;20003;-61
2023/03/18 10:02:46;;;;;;;20.15;13.35;;;;;;;11.62;69.59;101122.13;7391598;19;19994;-61
2023/03/18 10:05:17;;;;;;;22.13;13.13;;;;;;;11.83;68.77;101127.50;7391212;19;20007;-60
2023/03/18 10:07:46;;;;;;;24.63;14.10;;;;;;;11.90;68.15;101130.53;7389751;19;20096;-60
2023/03/18 10:10:28;;;;;;;21.67;14.10;;;;;;;11.94;68.40;101125.81;7388672;19;20074;-61
2023/03/18 10:13:20;;;;;;;27.67;15.27;;;;;;;11.95;68.86;101140.81;7389084;19;19994;-61
2023/03/18 10:15:56;;;;;;;23.55;14.05;;;;;;;12.05;67.90;101141.75;7387643;19;19994;-60
2023/03/18 10:18:28;;;;;;;24.35;14.85;;;;;;;12.28;67.21;101137.19;7389474;19;20018;-59
2023/03/18 10:21:15;;;;;;;21.80;14.57;;;;;;;12.43;67.18;101145.72;7389354;19;20003;-61
2023/03/18 10:24:08;;;;;;;25.30;14.43;;;;;;;12.49;67.04;101146.06;7389497;19;20009;-60
2023/03/18 10:26:43;;;;;;;28.30;14.88;;;;;;;12.47;66.86;101141.81;7387397;19;20454;-61
2023/03/18 10:29:12;;;;;;;28.77;16.45;;;;;;;12.45;66.96;101151.75;7390765;19;19990;-60
2023/03/18 10:31:50;;;;;;;28.67;16.63;;;;;;;12.46;66.77;101146.31;7390930;19;20476;-60
2023/03/18 10:34:20;;;;;;;25.67;15.70;;;;;;;12.54;66.37;101156.34;7390005;19;20006;-61
2023/03/18 10:36:52;;;;;;;26.20;16.20;;;;;;;12.68;65.63;101150.69;7389684;19;20016;-62
2023/03/18 10:39:23;;;;;;;23.15;15.88;;;;;;;12.89;65.72;101157.84;7390824;19;20002;-61
2023/03/18 10:41:53;;;;;;;22.83;15.40;;;;;;;13.09;65.27;101160.47;7390805;19;20003;-61
2023/03/18 10:44:23;;;;;;;24.95;16.05;;;;;;;13.06;65.21;101163.41;7393810;19;19998;-62
2023/03/18 10:46:57;;;;;;;24.13;16.13;;;;;;;13.06;65.25;101170.56;7395285;19;20002;-61
2023/03/18 10:49:28;;;;;;;27.58;16.90;;;;;;;12.96;65.76;101164.34;7397821;19;20011;-63
2023/03/18 10:51:59;;;;;;;27.23;17.17;;;;;;;12.90;65.75;101164.88;7397739;19;19998;-62
2023/03/18 10:54:25;;;;;;;26.55;16.60;;;;;;;12.95;65.54;101170.66;7395831;19;20446;-63
2023/03/18 10:56:51;;;;;;;24.58;16.40;;;;;;;12.94;65.52;101166.28;7396160;19;20005;-62
2023/03/18 10:59:20;;;;;;;23.90;16.27;;;;;;;12.95;65.42;101165.31;7397345;19;20002;-62
2023/03/18 11:02:05;;;;;;;27.77;16.20;;;;;;;12.97;65.39;101163.38;7397268;19;20034;-62
2023/03/18 11:04:41;;;;;;;27.92;16.88;;;;;;;13.03;65.18;101165.50;7394348;19;20017;-62
2023/03/18 11:07:16;;;;;;;26.05;16.65;;;;;;;12.95;65.59;101171.50;7395965;19;20002;-61
2023/03/18 11:09:41;;;;;;;23.73;16.90;;;;;;;12.92;65.27;101169.09;7395595;19;20006;-62
2023/03/18 11:12:17;;;;;;;24.70;16.80;;;;;;;12.93;65.32;101167.28;7397710;19;20304;-62
2023/03/18 11:14:48;;;;;;;28.98;17.67;;;;;;;12.92;65.38;101162.91;7395219;19;20037;-61
2023/03/18 11:17:24;;;;;;;29.52;18.05;;;;;;;13.00;65.04;101166.63;7395918;19;20014;-61
2023/03/18 11:20:18;;;;;;;27.20;17.52;;;;;;;12.93;65.16;101168.13;7396884;19;19999;-62
2023/03/18 11:22:46;;;;;;;27.00;17.90;;;;;;;12.95;65.49;101162.66;7396701;19;20006;-62